createdAt,value
2018-03-19T00:00:55.046Z,51.90
2018-03-19T00:01:55.016Z,51.50
2018-03-19T00:02:54.988Z,47.50
2018-03-19T00:03:54.956Z,57.60
2018-03-19T00:04:54.924Z,50.70
2018-03-19T00:05:54.895Z,48.80
2018-03-19T00:06:54.866Z,49.90
2018-03-19T00:07:54.834Z,53.50
2018-03-19T00:08:54.804Z,48.20
2018-03-19T00:09:54.775Z,52.10
2018-03-19T00:10:54.745Z,50.00
2018-03-19T00:11:54.716Z,50.50
2018-03-19T00:12:54.682Z,49.50
2018-03-19T00:13:54.655Z,49.20
2018-03-19T00:14:54.620Z,50.40
2018-03-19T00:15:54.591Z,51.30
2018-03-19T00:16:54.562Z,49.90
2018-03-19T00:17:54.531Z,52.50
2018-03-19T00:18:54.501Z,48.40
2018-03-19T00:19:54.469Z,50.60
2018-03-19T00:20:54.438Z,53.40
2018-03-19T00:21:54.408Z,47.80
2018-03-19T00:22:54.378Z,49.10
2018-03-19T00:23:54.347Z,48.50
2018-03-19T00:24:54.317Z,47.90
2018-03-19T00:25:54.288Z,50.90
2018-03-19T00:26:54.254Z,50.10
2018-03-19T00:27:54.262Z,50.80
2018-03-19T00:28:54.198Z,55.60
2018-03-19T00:29:54.169Z,52.10
2018-03-19T00:30:54.133Z,51.50
2018-03-19T00:31:54.104Z,51.60
2018-03-19T00:32:54.072Z,52.10
2018-03-19T00:33:54.043Z,47.60
2018-03-19T00:34:54.017Z,47.50
2018-03-19T00:35:53.982Z,53.70
2018-03-19T00:36:53.950Z,49.30
2018-03-19T00:37:53.921Z,48.00
2018-03-19T00:38:53.895Z,50.30
2018-03-19T00:39:53.863Z,47.20
2018-03-19T00:40:53.829Z,50.30
2018-03-19T00:41:53.800Z,50.10
2018-03-19T00:42:53.771Z,50.60
2018-03-19T00:43:53.738Z,50.90
2018-03-19T00:44:53.709Z,49.10
2018-03-19T00:45:53.678Z,50.20
2018-03-19T00:46:53.649Z,52.80
2018-03-19T00:47:53.618Z,49.20
2018-03-19T00:48:53.585Z,52.10
2018-03-19T00:49:53.555Z,52.00
2018-03-19T00:50:53.525Z,52.20
2018-03-19T00:51:53.496Z,49.30
2018-03-19T00:52:53.465Z,49.90
2018-03-19T00:53:53.439Z,52.00
2018-03-19T00:54:53.411Z,49.70
2018-03-19T00:55:53.375Z,51.20
2018-03-19T00:56:53.344Z,50.70
2018-03-19T00:57:53.312Z,50.40
2018-03-19T00:58:53.282Z,52.90
2018-03-19T00:59:53.251Z,48.90
2018-03-19T01:00:53.223Z,51.40
2018-03-19T01:01:53.194Z,51.20
2018-03-19T01:02:53.161Z,51.40
2018-03-19T01:03:53.131Z,54.50
2018-03-19T01:04:53.103Z,51.60
2018-03-19T01:05:53.070Z,48.60
2018-03-19T01:06:53.038Z,47.00
2018-03-19T01:07:53.010Z,47.20
2018-03-19T01:08:52.979Z,49.90
2018-03-19T01:09:52.949Z,50.70
2018-03-19T01:10:52.918Z,49.40
2018-03-19T01:11:52.888Z,50.00
2018-03-19T01:12:52.857Z,54.70
2018-03-19T01:13:52.833Z,53.90
2018-03-19T01:14:52.797Z,57.50
2018-03-19T01:15:52.767Z,56.60
2018-03-19T01:16:52.736Z,51.30
2018-03-19T01:17:53.462Z,51.70
2018-03-19T01:18:52.674Z,53.90
2018-03-19T01:19:52.646Z,49.40
2018-03-19T01:20:52.616Z,52.50
2018-03-19T01:21:52.585Z,53.00
2018-03-19T01:22:52.553Z,51.80
2018-03-19T01:23:52.525Z,53.60
2018-03-19T01:24:52.494Z,53.30
2018-03-19T01:25:52.465Z,50.00
2018-03-19T01:26:52.433Z,55.30
2018-03-19T01:27:52.404Z,51.60
2018-03-19T01:28:52.374Z,49.40
2018-03-19T01:29:52.344Z,52.60
2018-03-19T01:30:52.314Z,49.90
2018-03-19T01:31:52.283Z,49.50
2018-03-19T01:32:52.253Z,53.60
2018-03-19T01:33:52.221Z,55.50
2018-03-19T01:34:52.192Z,53.80
2018-03-19T01:35:52.161Z,54.70
2018-03-19T01:36:52.132Z,58.10
2018-03-19T01:37:52.101Z,52.20
2018-03-19T01:38:52.070Z,54.20
2018-03-19T01:39:52.040Z,57.50
2018-03-19T01:40:52.012Z,52.50
2018-03-19T01:41:51.981Z,54.60
2018-03-19T01:42:51.950Z,55.40
2018-03-19T01:43:51.921Z,54.00
2018-03-19T01:44:51.890Z,55.10
2018-03-19T01:45:51.859Z,55.60
2018-03-19T01:46:51.831Z,52.80
2018-03-19T01:47:51.799Z,53.10
2018-03-19T01:48:51.784Z,54.30
2018-03-19T01:49:51.739Z,56.20
2018-03-19T01:50:51.706Z,53.90
2018-03-19T01:51:51.680Z,54.10
2018-03-19T01:52:51.648Z,54.90
2018-03-19T01:53:51.618Z,57.30
2018-03-19T01:54:53.087Z,61.10
2018-03-19T01:55:51.556Z,53.80
2018-03-19T01:56:51.526Z,55.00
2018-03-19T01:57:51.495Z,58.20
2018-03-19T01:58:51.464Z,58.60
2018-03-19T01:59:51.434Z,63.80
2018-03-19T02:00:52.904Z,57.50
2018-03-19T02:01:51.372Z,55.50
2018-03-19T02:02:51.342Z,56.50
2018-03-19T02:03:51.311Z,56.60
2018-03-19T02:04:51.283Z,56.50
2018-03-19T02:05:51.252Z,57.80
2018-03-19T02:06:51.221Z,61.40
2018-03-19T02:07:51.190Z,59.00
2018-03-19T02:08:51.159Z,59.40
2018-03-19T02:09:51.128Z,52.00
2018-03-19T02:10:51.099Z,59.40
2018-03-19T02:11:51.067Z,54.00
2018-03-19T02:12:51.037Z,57.50
2018-03-19T02:13:51.006Z,56.30
2018-03-19T02:14:50.977Z,54.70
2018-03-19T02:15:50.945Z,59.40
2018-03-19T02:16:50.916Z,56.20
2018-03-19T02:17:50.885Z,56.20
2018-03-19T02:18:50.858Z,53.80
2018-03-19T02:19:50.824Z,57.60
2018-03-19T02:20:50.795Z,60.50
2018-03-19T02:21:50.765Z,57.30
2018-03-19T02:22:51.482Z,58.60
2018-03-19T02:23:50.704Z,59.70
2018-03-19T02:24:50.671Z,56.40
2018-03-19T02:25:50.642Z,57.30
2018-03-19T02:26:50.610Z,58.90
2018-03-19T02:27:50.579Z,60.30
2018-03-19T02:28:50.550Z,58.70
2018-03-19T02:29:50.520Z,56.60
2018-03-19T02:30:50.490Z,58.60
2018-03-19T02:31:50.459Z,59.80
2018-03-19T02:32:50.428Z,55.40
2018-03-19T02:33:51.900Z,58.80
2018-03-19T02:34:50.365Z,61.20
2018-03-19T02:35:50.338Z,62.90
2018-03-19T02:36:50.306Z,58.00
2018-03-19T02:37:50.281Z,59.80
2018-03-19T02:38:50.296Z,58.60
2018-03-19T02:39:50.213Z,59.80
2018-03-19T02:40:50.185Z,60.10
2018-03-19T02:41:50.153Z,63.20
2018-03-19T02:42:50.122Z,56.40
2018-03-19T02:43:50.091Z,57.80
2018-03-19T02:44:50.061Z,60.30
2018-03-19T02:45:50.032Z,61.20
2018-03-19T02:46:50.006Z,61.20
2018-03-19T02:47:49.968Z,60.80
2018-03-19T02:48:49.940Z,60.60
2018-03-19T02:49:49.909Z,63.80
2018-03-19T02:50:49.878Z,61.30
2018-03-19T02:51:49.846Z,65.80
2018-03-19T02:52:49.817Z,62.40
2018-03-19T02:53:49.786Z,60.50
2018-03-19T02:54:49.754Z,64.30
2018-03-19T02:55:49.725Z,59.60
2018-03-19T02:56:49.695Z,64.80
2018-03-19T02:57:49.664Z,60.00
2018-03-19T02:58:49.637Z,67.40
2018-03-19T02:59:49.602Z,59.80
2018-03-19T03:00:49.571Z,64.10
2018-03-19T03:01:49.541Z,63.40
2018-03-19T03:02:49.509Z,63.50
2018-03-19T03:03:49.479Z,67.30
2018-03-19T03:04:49.448Z,62.20
2018-03-19T03:05:49.435Z,67.20
2018-03-19T03:06:49.386Z,67.10
2018-03-19T03:07:49.359Z,64.70
2018-03-19T03:08:49.327Z,66.50
2018-03-19T03:09:49.297Z,62.90
2018-03-19T03:10:49.265Z,72.70
2018-03-19T03:11:49.236Z,66.80
2018-03-19T03:12:49.204Z,68.10
2018-03-19T03:13:49.174Z,67.60
2018-03-19T03:14:49.143Z,63.60
2018-03-19T03:15:49.117Z,66.60
2018-03-19T03:16:49.080Z,67.40
2018-03-19T03:17:49.051Z,66.70
2018-03-19T03:18:49.018Z,70.30
2018-03-19T03:19:48.992Z,66.20
2018-03-19T03:20:48.960Z,65.00
2018-03-19T03:21:48.927Z,69.60
2018-03-19T03:22:50.398Z,66.90
2018-03-19T03:23:48.866Z,66.20
2018-03-19T03:24:48.837Z,67.40
2018-03-19T03:25:48.805Z,59.90
2018-03-19T03:26:48.775Z,69.70
2018-03-19T03:27:48.744Z,66.60
2018-03-19T03:28:49.463Z,65.30
2018-03-19T03:29:48.682Z,69.30
2018-03-19T03:30:48.653Z,71.80
2018-03-19T03:31:48.621Z,70.60
2018-03-19T03:32:48.591Z,67.70
2018-03-19T03:33:48.559Z,72.90
2018-03-19T03:34:48.537Z,72.10
2018-03-19T03:35:48.500Z,71.40
2018-03-19T03:36:48.468Z,71.50
2018-03-19T03:37:48.437Z,68.70
2018-03-19T03:38:48.406Z,72.00
2018-03-19T03:39:48.374Z,68.20
2018-03-19T03:40:48.345Z,76.90
2018-03-19T03:41:48.315Z,79.40
2018-03-19T03:42:48.282Z,76.80
2018-03-19T03:43:48.252Z,83.00
2018-03-19T03:44:48.220Z,72.10
2018-03-19T03:45:48.190Z,76.90
2018-03-19T03:46:48.162Z,75.70
2018-03-19T03:47:48.129Z,71.80
2018-03-19T03:48:48.098Z,79.30
2018-03-19T03:49:48.066Z,77.70
2018-03-19T03:50:48.035Z,78.10
2018-03-19T03:51:48.005Z,71.00
2018-03-19T03:52:47.974Z,78.40
2018-03-19T03:53:47.944Z,73.20
2018-03-19T03:54:47.910Z,77.90
2018-03-19T03:55:47.881Z,76.50
2018-03-19T03:56:47.851Z,83.90
2018-03-19T03:57:47.819Z,75.20
2018-03-19T03:58:47.788Z,77.20
2018-03-19T03:59:47.759Z,79.10
2018-03-19T04:00:47.725Z,80.20
2018-03-19T04:01:47.694Z,81.90
2018-03-19T04:02:47.663Z,87.40
2018-03-19T04:03:47.634Z,81.80
2018-03-19T04:04:47.600Z,83.20
2018-03-19T04:05:47.581Z,84.70
2018-03-19T04:06:47.539Z,91.40
2018-03-19T04:07:47.508Z,78.30
2018-03-19T04:08:47.477Z,78.50
2018-03-19T04:09:47.446Z,82.50
2018-03-19T04:10:47.415Z,80.20
2018-03-19T04:11:47.385Z,79.30
2018-03-19T04:12:47.353Z,79.30
2018-03-19T04:13:47.324Z,83.60
2018-03-19T04:14:47.297Z,83.70
2018-03-19T04:15:47.258Z,75.10
2018-03-19T04:16:47.226Z,72.60
2018-03-19T04:17:47.198Z,82.40
2018-03-19T04:18:47.167Z,81.60
2018-03-19T04:19:47.133Z,78.10
2018-03-19T04:20:47.103Z,78.20
2018-03-19T04:21:47.072Z,74.60
2018-03-19T04:22:47.040Z,74.90
2018-03-19T04:23:47.011Z,83.20
2018-03-19T04:24:46.978Z,81.10
2018-03-19T04:25:46.953Z,87.10
2018-03-19T04:26:47.667Z,82.90
2018-03-19T04:27:46.884Z,78.80
2018-03-19T04:28:46.852Z,82.40
2018-03-19T04:29:46.823Z,79.60
2018-03-19T04:30:46.791Z,79.10
2018-03-19T04:31:46.758Z,84.00
2018-03-19T04:32:46.729Z,83.40
2018-03-19T04:33:46.696Z,80.10
2018-03-19T04:34:46.666Z,79.10
2018-03-19T04:35:46.635Z,77.60
2018-03-19T04:36:46.604Z,77.10
2018-03-19T04:37:46.574Z,80.20
2018-03-19T04:38:46.541Z,75.70
2018-03-19T04:39:46.511Z,84.50
2018-03-19T04:40:46.478Z,78.90
2018-03-19T04:41:46.450Z,78.30
2018-03-19T04:42:46.418Z,80.10
2018-03-19T04:43:46.386Z,83.00
2018-03-19T04:44:46.353Z,85.00
2018-03-19T04:45:46.323Z,81.20
2018-03-19T04:46:46.292Z,84.70
2018-03-19T04:47:47.011Z,74.70
2018-03-19T04:48:46.231Z,78.50
2018-03-19T04:49:46.199Z,76.40
2018-03-19T04:50:48.122Z,77.60
2018-03-19T04:51:46.135Z,77.20
2018-03-19T04:52:46.105Z,84.50
2018-03-19T04:53:46.075Z,74.60
2018-03-19T04:54:46.043Z,86.60
2018-03-19T04:55:46.014Z,76.70
2018-03-19T04:56:45.980Z,78.80
2018-03-19T04:57:45.997Z,69.90
2018-03-19T04:58:46.668Z,75.10
2018-03-19T04:59:45.887Z,79.40
2018-03-19T05:00:45.856Z,74.60
2018-03-19T05:01:45.825Z,74.00
2018-03-19T05:02:45.792Z,76.80
2018-03-19T05:03:45.762Z,74.40
2018-03-19T05:04:45.731Z,72.30
2018-03-19T05:05:45.700Z,73.10
2018-03-19T05:06:45.668Z,76.10
2018-03-19T05:07:45.637Z,68.70
2018-03-19T05:08:45.604Z,78.60
2018-03-19T05:09:45.576Z,78.90
2018-03-19T05:10:45.545Z,76.40
2018-03-19T05:11:45.512Z,75.80
2018-03-19T05:12:45.480Z,73.80
2018-03-19T05:13:45.448Z,70.00
2018-03-19T05:14:45.418Z,78.00
2018-03-19T05:15:45.387Z,76.20
2018-03-19T05:16:45.356Z,72.90
2018-03-19T05:17:45.325Z,76.50
2018-03-19T05:18:45.294Z,77.60
2018-03-19T05:19:45.263Z,75.70
2018-03-19T05:20:45.229Z,71.40
2018-03-19T05:21:45.201Z,76.10
2018-03-19T05:22:45.169Z,76.80
2018-03-19T05:23:45.136Z,75.90
2018-03-19T05:24:45.106Z,72.90
2018-03-19T05:25:45.073Z,78.10
2018-03-19T05:26:45.041Z,78.70
2018-03-19T05:27:45.011Z,75.40
2018-03-19T05:28:44.982Z,72.20
2018-03-19T05:29:44.952Z,82.90
2018-03-19T05:30:44.917Z,74.30
2018-03-19T05:31:44.887Z,76.30
2018-03-19T05:32:44.858Z,72.10
2018-03-19T05:33:44.826Z,78.00
2018-03-19T05:34:44.794Z,69.90
2018-03-19T05:35:44.764Z,77.20
2018-03-19T05:36:44.731Z,80.20
2018-03-19T05:37:44.703Z,74.50
2018-03-19T05:38:44.668Z,73.70
2018-03-19T05:39:44.636Z,73.20
2018-03-19T05:40:44.606Z,73.50
2018-03-19T05:41:44.575Z,73.10
2018-03-19T05:42:44.542Z,69.20
2018-03-19T05:43:44.510Z,72.90
2018-03-19T05:44:44.484Z,73.00
2018-03-19T05:45:44.450Z,71.20
2018-03-19T05:46:44.418Z,71.20
2018-03-19T05:47:44.388Z,71.10
2018-03-19T05:48:44.355Z,72.60
2018-03-19T05:49:44.325Z,71.70
2018-03-19T05:50:44.293Z,73.40
2018-03-19T05:51:44.262Z,69.10
2018-03-19T05:52:44.231Z,70.00
2018-03-19T05:53:44.201Z,72.00
2018-03-19T05:54:44.170Z,69.40
2018-03-19T05:55:44.140Z,72.30
2018-03-19T05:56:44.130Z,69.90
2018-03-19T05:57:44.075Z,69.90
2018-03-19T05:58:44.045Z,70.10
2018-03-19T05:59:44.011Z,72.20
2018-03-19T06:00:43.983Z,74.20
2018-03-19T06:01:43.951Z,73.40
2018-03-19T06:02:43.920Z,71.50
2018-03-19T06:03:45.388Z,75.50
2018-03-19T06:04:43.857Z,75.30
2018-03-19T06:05:43.826Z,68.00
2018-03-19T06:06:43.794Z,73.30
2018-03-19T06:07:43.765Z,66.60
2018-03-19T06:08:43.734Z,71.80
2018-03-19T06:09:43.700Z,69.20
2018-03-19T06:10:43.668Z,72.50
2018-03-19T06:11:43.639Z,73.60
2018-03-19T06:12:43.607Z,79.10
2018-03-19T06:13:43.574Z,67.90
2018-03-19T06:14:43.544Z,74.70
2018-03-19T06:15:43.514Z,67.10
2018-03-19T06:16:43.480Z,72.00
2018-03-19T06:17:43.451Z,75.40
2018-03-19T06:18:43.417Z,70.70
2018-03-19T06:19:43.388Z,72.70
2018-03-19T06:20:43.355Z,70.30
2018-03-19T06:21:43.329Z,72.00
2018-03-19T06:22:43.293Z,71.40
2018-03-19T06:23:43.261Z,69.00
2018-03-19T06:24:43.232Z,73.70
2018-03-19T06:25:43.952Z,68.90
2018-03-19T06:26:43.168Z,71.30
2018-03-19T06:27:43.136Z,70.00
2018-03-19T06:28:43.106Z,73.80
2018-03-19T06:29:43.076Z,72.00
2018-03-19T06:30:43.043Z,67.90
2018-03-19T06:31:43.012Z,70.40
2018-03-19T06:32:42.982Z,65.20
2018-03-19T06:33:42.999Z,71.30
2018-03-19T06:34:42.918Z,69.70
2018-03-19T06:35:42.886Z,72.20
2018-03-19T06:36:42.859Z,67.70
2018-03-19T06:37:42.825Z,65.70
2018-03-19T06:38:42.820Z,69.30
2018-03-19T06:39:42.761Z,68.70
2018-03-19T06:40:42.731Z,68.90
2018-03-19T06:41:42.700Z,65.60
2018-03-19T06:42:42.669Z,66.90
2018-03-19T06:43:42.636Z,67.00
2018-03-19T06:44:42.607Z,69.70
2018-03-19T06:45:42.576Z,74.70
2018-03-19T06:46:42.544Z,62.20
2018-03-19T06:47:42.514Z,70.10
2018-03-19T06:48:42.482Z,69.80
2018-03-19T06:49:42.457Z,68.60
2018-03-19T06:50:42.419Z,63.20
2018-03-19T06:51:42.388Z,67.10
2018-03-19T06:52:42.360Z,67.60
2018-03-19T06:53:42.327Z,63.90
2018-03-19T06:54:42.297Z,63.30
2018-03-19T06:55:42.265Z,62.30
2018-03-19T06:56:42.235Z,62.50
2018-03-19T06:57:42.204Z,63.70
2018-03-19T06:58:42.173Z,65.60
2018-03-19T06:59:42.142Z,61.10
2018-03-19T07:00:42.110Z,63.30
2018-03-19T07:01:42.081Z,63.10
2018-03-19T07:02:42.049Z,63.20
2018-03-19T07:03:42.018Z,63.60
2018-03-19T07:04:41.990Z,66.10
2018-03-19T07:05:41.959Z,69.00
2018-03-19T07:06:41.925Z,65.20
2018-03-19T07:07:41.894Z,63.10
2018-03-19T07:08:41.866Z,66.90
2018-03-19T07:09:41.836Z,65.50
2018-03-19T07:10:41.803Z,67.20
2018-03-19T07:11:41.773Z,63.50
2018-03-19T07:12:41.740Z,59.40
2018-03-19T07:13:41.710Z,64.70
2018-03-19T07:14:41.679Z,63.60
2018-03-19T07:15:41.649Z,65.60
2018-03-19T07:16:41.621Z,64.60
2018-03-19T07:17:45.341Z,60.40
2018-03-19T07:18:41.561Z,65.60
2018-03-19T07:19:41.528Z,58.90
2018-03-19T07:20:41.495Z,64.00
2018-03-19T07:21:41.465Z,66.10
2018-03-19T07:22:41.433Z,58.70
2018-03-19T07:23:41.403Z,64.50
2018-03-19T07:24:41.373Z,62.40
2018-03-19T07:25:41.343Z,62.40
2018-03-19T07:26:41.313Z,65.70
2018-03-19T07:27:41.280Z,68.20
2018-03-19T07:28:41.268Z,63.60
2018-03-19T07:29:41.220Z,63.20
2018-03-19T07:30:41.187Z,59.10
2018-03-19T07:31:41.166Z,66.50
2018-03-19T07:32:41.127Z,64.40
2018-03-19T07:33:41.102Z,66.60
2018-03-19T07:34:41.185Z,62.00
2018-03-19T07:35:41.036Z,58.90
2018-03-19T07:36:41.003Z,55.50
2018-03-19T07:37:40.973Z,56.90
2018-03-19T07:38:40.945Z,61.00
2018-03-19T07:39:40.913Z,61.20
2018-03-19T07:40:40.883Z,62.80
2018-03-19T07:41:40.851Z,58.60
2018-03-19T07:42:40.821Z,62.70
2018-03-19T07:43:40.792Z,63.00
2018-03-19T07:44:40.764Z,63.80
2018-03-19T07:45:40.732Z,60.20
2018-03-19T07:46:40.707Z,62.50
2018-03-19T07:47:40.672Z,65.30
2018-03-19T07:48:40.641Z,62.00
2018-03-19T07:49:40.611Z,59.90
2018-03-19T07:50:40.580Z,58.50
2018-03-19T07:51:40.550Z,57.50
2018-03-19T07:52:40.519Z,58.40
2018-03-19T07:53:40.491Z,57.60
2018-03-19T07:54:40.460Z,60.50
2018-03-19T07:55:40.429Z,58.80
2018-03-19T07:56:40.401Z,55.80
2018-03-19T07:57:40.369Z,58.90
2018-03-19T07:58:40.340Z,61.50
2018-03-19T07:59:40.308Z,63.10
2018-03-19T08:00:47.786Z,57.90
2018-03-19T08:01:40.255Z,56.80
2018-03-19T08:02:40.218Z,61.30
2018-03-19T08:03:40.188Z,61.80
2018-03-19T08:04:40.159Z,60.20
2018-03-19T08:05:40.130Z,61.20
2018-03-19T08:06:40.849Z,62.20
2018-03-19T08:07:40.071Z,60.30
2018-03-19T08:08:40.040Z,60.30
2018-03-19T08:09:40.013Z,59.50
2018-03-19T08:10:39.978Z,57.90
2018-03-19T08:11:39.950Z,60.90
2018-03-19T08:12:39.920Z,58.70
2018-03-19T08:13:39.892Z,62.60
2018-03-19T08:14:39.860Z,57.00
2018-03-19T08:15:39.830Z,63.10
2018-03-19T08:16:39.801Z,56.60
2018-03-19T08:17:42.773Z,52.10
2018-03-19T08:18:39.785Z,55.70
2018-03-19T08:19:39.714Z,60.80
2018-03-19T08:20:39.682Z,59.10
2018-03-19T08:21:39.653Z,57.50
2018-03-19T08:22:39.622Z,55.70
2018-03-19T08:23:40.342Z,54.60
2018-03-19T08:24:39.563Z,54.00
2018-03-19T08:25:39.534Z,53.80
2018-03-19T08:26:39.505Z,55.20
2018-03-19T08:27:39.480Z,55.50
2018-03-19T08:28:39.446Z,57.20
2018-03-19T08:29:39.417Z,51.30
2018-03-19T08:30:39.390Z,53.10
2018-03-19T08:31:39.363Z,61.90
2018-03-19T08:32:39.328Z,50.30
2018-03-19T08:33:39.298Z,55.30
2018-03-19T08:34:40.022Z,54.80
2018-03-19T08:35:39.241Z,50.90
2018-03-19T08:36:39.210Z,56.20
2018-03-19T08:37:39.188Z,50.90
2018-03-19T08:38:39.151Z,55.80
2018-03-19T08:39:39.126Z,59.50
2018-03-19T08:40:39.098Z,58.40
2018-03-19T08:41:39.065Z,54.40
2018-03-19T08:42:39.034Z,61.80
2018-03-19T08:43:39.005Z,54.40
2018-03-19T08:44:38.978Z,55.10
2018-03-19T08:45:38.947Z,52.60
2018-03-19T08:46:38.917Z,55.80
2018-03-19T08:47:38.887Z,51.30
2018-03-19T08:48:38.858Z,55.70
2018-03-19T08:49:38.832Z,53.10
2018-03-19T08:50:38.799Z,57.80
2018-03-19T08:51:38.770Z,58.10
2018-03-19T08:52:38.741Z,55.30
2018-03-19T08:53:38.713Z,56.20
2018-03-19T08:54:38.682Z,55.00
2018-03-19T08:55:38.660Z,53.50
2018-03-19T08:56:38.626Z,53.90
2018-03-19T08:57:38.593Z,52.70
2018-03-19T08:58:38.565Z,53.20
2018-03-19T08:59:38.534Z,54.10
2018-03-19T09:00:38.507Z,52.10
2018-03-19T09:01:38.484Z,53.30
2018-03-19T09:02:38.448Z,54.20
2018-03-19T09:03:38.426Z,60.20
2018-03-19T09:04:38.389Z,58.00
2018-03-19T09:05:38.361Z,51.50
2018-03-19T09:06:38.330Z,51.90
2018-03-19T09:07:38.305Z,55.30
2018-03-19T09:08:38.273Z,52.60
2018-03-19T09:09:38.247Z,55.70
2018-03-19T09:10:38.216Z,53.90
2018-03-19T09:11:39.689Z,52.70
2018-03-19T09:12:38.188Z,54.60
2018-03-19T09:13:38.131Z,51.00
2018-03-19T09:14:38.100Z,54.70
2018-03-19T09:15:38.072Z,55.50
2018-03-19T09:16:38.049Z,48.70
2018-03-19T09:17:38.015Z,53.50
2018-03-19T09:18:37.984Z,51.40
2018-03-19T09:19:37.962Z,52.20
2018-03-19T09:20:37.930Z,51.80
2018-03-19T09:21:37.899Z,52.30
2018-03-19T09:22:37.870Z,54.00
2018-03-19T09:23:37.840Z,53.10
2018-03-19T09:24:37.814Z,54.10
2018-03-19T09:25:37.788Z,58.60
2018-03-19T09:26:37.755Z,50.70
2018-03-19T09:27:37.729Z,50.90
2018-03-19T09:28:37.699Z,54.40
2018-03-19T09:29:37.669Z,52.20
2018-03-19T09:30:37.641Z,55.50
2018-03-19T09:31:37.612Z,55.70
2018-03-19T09:32:37.582Z,54.60
2018-03-19T09:33:37.554Z,52.60
2018-03-19T09:34:37.525Z,49.70
2018-03-19T09:35:37.496Z,53.40
2018-03-19T09:36:37.524Z,51.50
2018-03-19T09:37:37.492Z,48.20
2018-03-19T09:38:38.162Z,51.90
2018-03-19T09:39:37.382Z,57.70
2018-03-19T09:40:37.352Z,54.20
2018-03-19T09:41:37.374Z,52.90
2018-03-19T09:42:37.294Z,50.10
2018-03-19T09:43:37.265Z,51.00
2018-03-19T09:44:37.235Z,48.70
2018-03-19T09:45:37.206Z,56.20
2018-03-19T09:46:37.177Z,52.00
2018-03-19T09:47:37.150Z,53.60
2018-03-19T09:48:37.118Z,56.00
2018-03-19T09:49:41.593Z,51.10
2018-03-19T09:50:37.089Z,50.80
2018-03-19T09:51:37.031Z,50.20
2018-03-19T09:52:37.002Z,53.00
2018-03-19T09:53:36.974Z,52.40
2018-03-19T09:54:36.948Z,48.90
2018-03-19T09:55:39.167Z,50.30
2018-03-19T09:56:36.886Z,48.60
2018-03-19T09:57:36.861Z,50.00
2018-03-19T09:58:36.833Z,47.60
2018-03-19T09:59:36.803Z,49.10
2018-03-19T10:00:36.770Z,47.60
2018-03-19T10:01:39.745Z,50.40
2018-03-19T10:02:36.714Z,51.80
2018-03-19T10:03:36.683Z,51.90
2018-03-19T10:04:36.657Z,50.90
2018-03-19T10:05:36.627Z,47.50
2018-03-19T10:06:36.598Z,56.40
2018-03-19T10:07:37.320Z,48.80
2018-03-19T10:08:36.542Z,49.80
2018-03-19T10:09:36.513Z,45.80
2018-03-19T10:10:36.483Z,50.00
2018-03-19T10:11:36.455Z,49.50
2018-03-19T10:12:36.434Z,47.10
2018-03-19T10:13:36.401Z,50.00
2018-03-19T10:14:36.370Z,44.80
2018-03-19T10:15:36.342Z,44.00
2018-03-19T10:16:36.313Z,48.00
2018-03-19T10:17:36.284Z,45.70
2018-03-19T10:18:36.256Z,48.40
2018-03-19T10:19:36.229Z,48.60
2018-03-19T10:20:36.199Z,44.40
2018-03-19T10:21:36.173Z,46.60
2018-03-19T10:22:36.144Z,48.00
2018-03-19T10:23:36.114Z,48.50
2018-03-19T10:24:36.087Z,45.10
2018-03-19T10:25:36.060Z,47.20
2018-03-19T10:26:36.031Z,47.70
2018-03-19T10:27:36.058Z,46.90
2018-03-19T10:28:38.996Z,48.50
2018-03-19T10:29:35.948Z,44.20
2018-03-19T10:30:35.920Z,44.30
2018-03-19T10:31:35.892Z,44.70
2018-03-19T10:32:35.866Z,46.50
2018-03-19T10:33:35.835Z,46.90
2018-03-19T10:34:35.808Z,47.00
2018-03-19T10:35:35.786Z,50.10
2018-03-19T10:36:35.753Z,46.00
2018-03-19T10:37:35.725Z,44.70
2018-03-19T10:38:35.708Z,44.40
2018-03-19T10:39:35.671Z,47.00
2018-03-19T10:40:35.642Z,42.70
2018-03-19T10:41:35.615Z,45.10
2018-03-19T10:42:35.587Z,45.50
2018-03-19T10:43:35.561Z,48.40
2018-03-19T10:44:35.532Z,47.20
2018-03-19T10:45:36.256Z,47.60
2018-03-19T10:46:35.478Z,47.00
2018-03-19T10:47:35.451Z,43.90
2018-03-19T10:48:35.423Z,47.80
2018-03-19T10:49:35.399Z,44.40
2018-03-19T10:50:35.367Z,47.30
2018-03-19T10:51:35.342Z,48.00
2018-03-19T10:52:35.317Z,46.30
2018-03-19T10:53:35.288Z,45.30
2018-03-19T10:54:35.260Z,49.20
2018-03-19T10:55:35.235Z,45.40
2018-03-19T10:56:35.204Z,47.30
2018-03-19T10:57:35.176Z,45.20
2018-03-19T10:58:35.467Z,46.20
2018-03-19T10:59:35.126Z,46.40
2018-03-19T11:00:35.094Z,44.90
2018-03-19T11:01:36.567Z,44.20
2018-03-19T11:02:35.038Z,46.80
2018-03-19T11:03:35.018Z,46.00
2018-03-19T11:04:34.982Z,43.50
2018-03-19T11:05:34.957Z,44.20
2018-03-19T11:06:34.927Z,42.40
2018-03-19T11:07:35.649Z,44.30
2018-03-19T11:08:34.870Z,44.00
2018-03-19T11:09:34.843Z,43.30
2018-03-19T11:10:35.016Z,44.80
2018-03-19T11:11:34.787Z,46.30
2018-03-19T11:12:34.760Z,44.00
2018-03-19T11:13:34.733Z,44.40
2018-03-19T11:14:34.702Z,44.50
2018-03-19T11:15:34.675Z,43.00
2018-03-19T11:16:34.651Z,42.70
2018-03-19T11:17:34.650Z,46.00
2018-03-19T11:18:34.596Z,42.90
2018-03-19T11:19:34.570Z,44.40
2018-03-19T11:20:34.554Z,40.40
2018-03-19T11:21:34.509Z,45.50
2018-03-19T11:22:34.481Z,47.40
2018-03-19T11:23:34.456Z,41.40
2018-03-19T11:24:34.426Z,45.80
2018-03-19T11:25:34.400Z,43.20
2018-03-19T11:26:34.372Z,42.10
2018-03-19T11:27:34.349Z,42.20
2018-03-19T11:28:34.317Z,41.90
2018-03-19T11:29:34.289Z,45.30
2018-03-19T11:30:34.261Z,45.70
2018-03-19T11:31:34.234Z,46.50
2018-03-19T11:32:34.206Z,45.00
2018-03-19T11:33:34.182Z,46.60
2018-03-19T11:34:34.153Z,44.40
2018-03-19T11:35:34.125Z,41.40
2018-03-19T11:36:34.149Z,42.40
2018-03-19T11:37:34.070Z,50.70
2018-03-19T11:38:34.041Z,48.60
2018-03-19T11:39:34.014Z,45.30
2018-03-19T11:40:33.988Z,48.00
2018-03-19T11:41:33.960Z,44.40
2018-03-19T11:42:33.935Z,42.70
2018-03-19T11:43:33.904Z,43.10
2018-03-19T11:44:34.627Z,45.40
2018-03-19T11:45:33.850Z,42.90
2018-03-19T11:46:33.823Z,45.50
2018-03-19T11:47:33.793Z,44.30
2018-03-19T11:48:33.767Z,45.00
2018-03-19T11:49:33.745Z,45.60
2018-03-19T11:50:33.710Z,45.60
2018-03-19T11:51:33.684Z,47.70
2018-03-19T11:52:33.658Z,43.20
2018-03-19T11:53:33.630Z,46.50
2018-03-19T11:54:33.600Z,44.00
2018-03-19T11:55:33.573Z,44.60
2018-03-19T11:56:33.547Z,47.30
2018-03-19T11:57:33.519Z,44.70
2018-03-19T11:58:33.491Z,44.20
2018-03-19T11:59:33.463Z,42.50
2018-03-19T12:00:33.437Z,45.40
2018-03-19T12:01:33.408Z,43.50
2018-03-19T12:02:33.381Z,42.20
2018-03-19T12:03:33.353Z,42.70
2018-03-19T12:04:33.325Z,41.20
2018-03-19T12:05:33.298Z,42.20
2018-03-19T12:06:33.270Z,40.00
2018-03-19T12:07:33.243Z,41.50
2018-03-19T12:08:33.217Z,42.30
2018-03-19T12:09:33.191Z,40.30
2018-03-19T12:10:33.161Z,39.30
2018-03-19T12:11:33.132Z,37.20
2018-03-19T12:12:33.105Z,45.40
2018-03-19T12:13:33.080Z,40.10
2018-03-19T12:14:33.052Z,41.60
2018-03-19T12:15:33.024Z,41.20
2018-03-19T12:16:33.746Z,39.70
2018-03-19T12:17:32.968Z,41.40
2018-03-19T12:18:32.942Z,40.90
2018-03-19T12:19:32.919Z,42.20
2018-03-19T12:20:32.888Z,42.30
2018-03-19T12:21:32.862Z,40.60
2018-03-19T12:22:32.833Z,43.40
2018-03-19T12:23:32.805Z,43.90
2018-03-19T12:24:32.778Z,45.20
2018-03-19T12:25:32.751Z,45.90
2018-03-19T12:26:32.723Z,45.00
2018-03-19T12:27:38.702Z,44.50
2018-03-19T12:28:32.670Z,41.70
2018-03-19T12:29:32.642Z,42.80
2018-03-19T12:30:32.615Z,44.10
2018-03-19T12:31:32.588Z,42.10
2018-03-19T12:32:32.561Z,41.60
2018-03-19T12:33:32.535Z,41.70
2018-03-19T12:34:32.509Z,44.20
2018-03-19T12:35:32.481Z,44.90
2018-03-19T12:36:32.453Z,42.30
2018-03-19T12:37:32.427Z,42.80
2018-03-19T12:38:32.398Z,42.60
2018-03-19T12:39:32.372Z,42.60
2018-03-19T12:40:32.344Z,45.40
2018-03-19T12:41:32.319Z,41.20
2018-03-19T12:42:32.290Z,41.90
2018-03-19T12:43:32.263Z,40.90
2018-03-19T12:44:32.236Z,44.00
2018-03-19T12:45:32.210Z,42.40
2018-03-19T12:46:32.182Z,42.50
2018-03-19T12:47:32.155Z,41.70
2018-03-19T12:48:32.129Z,44.30
2018-03-19T12:49:32.101Z,46.90
2018-03-19T12:50:32.073Z,40.10
2018-03-19T12:51:32.046Z,41.80
2018-03-19T12:52:32.020Z,40.60